Weather at Calgary International Airport

Public forecast

Using degrees Celsius for public forecast. Weather courtesy of forecast.io.

Current aviation weather report (METAR) for Calgary International Airport

Retrieved 2021/01/24 15:42 UTC (0 seconds ago):

CYYC 241542Z 14006KT 2SM -SN FEW003 BKN007 OVC095 M15/M17 A2967 RMK SF1ST5AC2 SLP132

Aviation forecast (TAF) for Calgary International Airport

Retrieved 2021/01/24 15:42 UTC (0 seconds ago):

TAF CYYC 241439Z 2415/2512 16006KT 2SM -SN BR FEW002 BKN006 OVC080 TEMPO 2415/2418 6SM BR SCT006 OVC080 PROB30 2415/2418 3/4SM -SN BR OVC002 FM241800 16008KT P6SM FEW006 BKN080 FM242200 12010KT P6SM FEW020 SCT100 RMK NXT FCST BY 241800Z